Terminal Aerodrome Forecast
Issued by NWS

Home | Current Version | Previous Version | Text Only | Print | Product List | Glossary On
Versions: 1 2 3 4 5 6 7 8 9 10 11 12 13 14 15 16 17
000
FTUS43 KGRR 250301 AAB
TAFBTL
TAF AMD
KBTL 250301Z 2503/2524 01009KT 5SM -SHRA BR OVC007
     FM250500 01007KT 3SM BR VCSH OVC007
     FM251400 34010KT P6SM VCSH OVC015
     FM252000 32010G16KT P6SM VCTS BKN025CB=

USA.gov is the U.S. government's official web portal to all federal, state and local government web resources and services.